createdAt,value
2022-11-29T00:00:28.475Z,50.24
2022-11-29T00:01:28.475Z,50.64
2022-11-29T00:02:29.264Z,48.83
2022-11-29T00:03:28.566Z,49.95
2022-11-29T00:04:28.494Z,49.10
2022-11-29T00:05:28.435Z,48.70
2022-11-29T00:06:28.444Z,47.42
2022-11-29T00:07:28.516Z,48.54
2022-11-29T00:08:29.052Z,50.24
2022-11-29T00:09:28.411Z,48.16
2022-11-29T00:10:29.150Z,49.53
2022-11-29T00:11:28.407Z,48.74
2022-11-29T00:12:28.397Z,49.03
2022-11-29T00:13:28.397Z,55.57
2022-11-29T00:14:28.406Z,52.08
2022-11-29T00:15:28.793Z,49.24
2022-11-29T00:16:28.453Z,48.54
2022-11-29T00:17:28.360Z,48.66
2022-11-29T00:18:28.423Z,48.93
2022-11-29T00:19:28.381Z,50.46
2022-11-29T00:20:28.364Z,49.40
2022-11-29T00:21:28.361Z,50.05
2022-11-29T00:22:28.352Z,49.05
2022-11-29T00:23:29.200Z,50.29
2022-11-29T00:24:28.504Z,58.52
2022-11-29T00:25:28.322Z,51.80
2022-11-29T00:26:28.502Z,48.91
2022-11-29T00:27:28.299Z,48.04
2022-11-29T00:28:28.751Z,50.53
2022-11-29T00:29:28.286Z,57.61
2022-11-29T00:30:28.360Z,49.85
2022-11-29T00:31:28.288Z,48.83
2022-11-29T00:32:28.280Z,48.94
2022-11-29T00:33:28.424Z,49.21
2022-11-29T00:34:28.292Z,50.38
2022-11-29T00:35:28.283Z,50.50
2022-11-29T00:36:28.266Z,50.51
2022-11-29T00:37:28.249Z,52.11
2022-11-29T00:38:28.362Z,51.16
2022-11-29T00:39:28.252Z,49.81
2022-11-29T00:40:28.237Z,48.86
2022-11-29T00:41:28.212Z,52.76
2022-11-29T00:42:28.210Z,59.97
2022-11-29T00:43:28.209Z,53.56
2022-11-29T00:44:28.225Z,50.16
2022-11-29T00:45:28.199Z,50.38
2022-11-29T00:46:28.240Z,50.64
2022-11-29T00:47:28.171Z,57.43
2022-11-29T00:48:28.200Z,54.43
2022-11-29T00:49:28.600Z,52.30
2022-11-29T00:50:28.159Z,52.38
2022-11-29T00:51:28.180Z,51.44
2022-11-29T00:52:28.146Z,50.68
2022-11-29T00:53:28.774Z,51.70
2022-11-29T00:54:28.148Z,50.78
2022-11-29T00:55:28.119Z,52.28
2022-11-29T00:56:28.529Z,51.34
2022-11-29T00:57:28.127Z,51.26
2022-11-29T00:58:28.124Z,52.83
2022-11-29T00:59:28.115Z,51.53
2022-11-29T01:00:28.101Z,50.42
2022-11-29T01:01:28.163Z,50.49
2022-11-29T01:02:28.218Z,50.80
2022-11-29T01:03:28.089Z,51.29
2022-11-29T01:04:28.058Z,50.95
2022-11-29T01:05:28.075Z,51.28
2022-11-29T01:06:28.082Z,51.05
2022-11-29T01:07:28.107Z,51.58
2022-11-29T01:08:28.684Z,51.56
2022-11-29T01:09:28.050Z,50.66
2022-11-29T01:10:28.022Z,50.70
2022-11-29T01:11:28.041Z,50.83
2022-11-29T01:12:28.023Z,50.02
2022-11-29T01:13:28.042Z,49.75
2022-11-29T01:14:28.006Z,51.53
2022-11-29T01:15:28.013Z,51.26
2022-11-29T01:16:28.176Z,51.54
2022-11-29T01:17:27.998Z,51.07
2022-11-29T01:18:27.984Z,50.75
2022-11-29T01:19:27.973Z,50.12
2022-11-29T01:20:27.970Z,49.83
2022-11-29T01:21:27.959Z,48.55
2022-11-29T01:22:28.624Z,47.83
2022-11-29T01:23:28.012Z,48.35
2022-11-29T01:24:27.932Z,48.68
2022-11-29T01:25:27.948Z,48.02
2022-11-29T01:26:28.417Z,49.90
2022-11-29T01:27:27.928Z,60.31
2022-11-29T01:28:27.935Z,52.96
2022-11-29T01:29:27.913Z,49.23
2022-11-29T01:30:27.962Z,49.58
2022-11-29T01:31:28.327Z,51.39
2022-11-29T01:32:27.892Z,47.66
2022-11-29T01:33:27.875Z,58.38
2022-11-29T01:34:27.943Z,54.69
2022-11-29T01:35:27.871Z,48.37
2022-11-29T01:36:27.893Z,48.22
2022-11-29T01:37:27.946Z,54.07
2022-11-29T01:38:27.858Z,53.54
2022-11-29T01:39:27.886Z,46.45
2022-11-29T01:40:28.889Z,46.81
2022-11-29T01:41:27.833Z,47.34
2022-11-29T01:42:27.840Z,49.30
2022-11-29T01:43:27.825Z,48.41
2022-11-29T01:44:27.818Z,47.68
2022-11-29T01:45:28.009Z,47.22
2022-11-29T01:46:27.898Z,47.82
2022-11-29T01:47:27.789Z,49.72
2022-11-29T01:48:27.810Z,49.72
2022-11-29T01:49:27.788Z,49.07
2022-11-29T01:50:27.777Z,48.88
2022-11-29T01:51:29.171Z,55.82
2022-11-29T01:52:27.762Z,53.37
2022-11-29T01:53:27.752Z,48.94
2022-11-29T01:54:27.766Z,49.67
2022-11-29T01:55:27.765Z,49.51
2022-11-29T01:56:28.563Z,48.92
2022-11-29T01:57:27.742Z,49.91
2022-11-29T01:58:27.724Z,49.75
2022-11-29T01:59:27.723Z,49.61
2022-11-29T02:00:27.709Z,48.36
2022-11-29T02:01:27.764Z,48.66
2022-11-29T02:02:27.978Z,49.79
2022-11-29T02:03:27.679Z,49.47
2022-11-29T02:04:27.706Z,49.33
2022-11-29T02:05:27.680Z,49.70
2022-11-29T02:06:27.771Z,49.57
2022-11-29T02:07:28.208Z,48.93
2022-11-29T02:08:27.661Z,49.85
2022-11-29T02:09:27.641Z,49.98
2022-11-29T02:10:28.331Z,48.81
2022-11-29T02:11:27.664Z,48.67
2022-11-29T02:12:27.649Z,50.74
2022-11-29T02:13:27.630Z,57.62
2022-11-29T02:14:27.622Z,54.10
2022-11-29T02:15:27.744Z,48.92
2022-11-29T02:16:27.647Z,48.92
2022-11-29T02:17:28.027Z,49.90
2022-11-29T02:18:27.593Z,49.98
2022-11-29T02:19:27.591Z,49.10
2022-11-29T02:20:27.608Z,49.26
2022-11-29T02:21:27.568Z,48.82
2022-11-29T02:22:27.621Z,48.73
2022-11-29T02:23:28.746Z,49.30
2022-11-29T02:24:27.566Z,49.64
2022-11-29T02:25:27.551Z,49.91
2022-11-29T02:26:27.559Z,50.23
2022-11-29T02:27:27.568Z,56.85
2022-11-29T02:28:27.530Z,54.10
2022-11-29T02:29:28.205Z,48.68
2022-11-29T02:30:27.529Z,49.02
2022-11-29T02:31:27.511Z,49.42
2022-11-29T02:32:27.503Z,50.01
2022-11-29T02:33:27.492Z,49.79
2022-11-29T02:34:27.521Z,49.25
2022-11-29T02:35:27.476Z,49.45
2022-11-29T02:36:27.496Z,48.51
2022-11-29T02:37:27.474Z,49.27
2022-11-29T02:38:27.464Z,48.24
2022-11-29T02:39:27.484Z,48.88
2022-11-29T02:40:27.886Z,48.42
2022-11-29T02:41:27.439Z,48.23
2022-11-29T02:42:27.456Z,48.28
2022-11-29T02:43:27.490Z,47.97
2022-11-29T02:44:27.440Z,49.09
2022-11-29T02:45:27.423Z,48.66
2022-11-29T02:46:27.462Z,48.53
2022-11-29T02:47:27.402Z,49.18
2022-11-29T02:48:27.411Z,49.59
2022-11-29T02:49:28.007Z,48.16
2022-11-29T02:50:27.389Z,48.88
2022-11-29T02:51:27.393Z,48.69
2022-11-29T02:52:27.418Z,48.46
2022-11-29T02:53:27.362Z,47.90
2022-11-29T02:54:27.379Z,52.62
2022-11-29T02:55:27.363Z,58.92
2022-11-29T02:56:27.360Z,49.58
2022-11-29T02:57:27.357Z,48.23
2022-11-29T02:58:28.091Z,48.62
2022-11-29T02:59:27.357Z,48.79
2022-11-29T03:00:27.321Z,48.25
2022-11-29T03:01:27.393Z,50.97
2022-11-29T03:02:27.435Z,48.86
2022-11-29T03:03:27.293Z,48.44
2022-11-29T03:04:27.325Z,48.16
2022-11-29T03:05:27.294Z,48.14
2022-11-29T03:06:27.298Z,48.40
2022-11-29T03:07:27.428Z,48.67
2022-11-29T03:08:27.268Z,47.78
2022-11-29T03:09:27.258Z,47.28
2022-11-29T03:10:27.283Z,48.43
2022-11-29T03:11:28.020Z,48.59
2022-11-29T03:12:27.259Z,48.53
2022-11-29T03:13:27.674Z,48.68
2022-11-29T03:14:27.970Z,48.42
2022-11-29T03:15:27.354Z,48.68
2022-11-29T03:16:27.218Z,46.75
2022-11-29T03:17:27.235Z,49.98
2022-11-29T03:18:27.228Z,50.45
2022-11-29T03:19:27.201Z,47.88
2022-11-29T03:20:27.199Z,48.26
2022-11-29T03:21:27.176Z,47.85
2022-11-29T03:22:27.213Z,48.02
2022-11-29T03:23:27.160Z,48.70
2022-11-29T03:24:27.178Z,47.72
2022-11-29T03:25:27.170Z,51.86
2022-11-29T03:26:27.154Z,63.81
2022-11-29T03:27:27.148Z,52.66
2022-11-29T03:28:28.298Z,53.98
2022-11-29T03:29:27.127Z,52.85
2022-11-29T03:30:27.129Z,48.52
2022-11-29T03:31:27.474Z,48.72
2022-11-29T03:32:27.151Z,46.23
2022-11-29T03:33:27.941Z,47.62
2022-11-29T03:34:27.141Z,47.18
2022-11-29T03:35:27.089Z,47.79
2022-11-29T03:36:27.198Z,45.98
2022-11-29T03:37:27.083Z,45.64
2022-11-29T03:38:27.075Z,46.43
2022-11-29T03:39:27.145Z,48.34
2022-11-29T03:40:27.058Z,50.84
2022-11-29T03:41:27.058Z,56.38
2022-11-29T03:42:27.080Z,48.73
2022-11-29T03:43:27.038Z,47.13
2022-11-29T03:44:27.051Z,47.11
2022-11-29T03:45:27.463Z,47.36
2022-11-29T03:46:27.120Z,47.40
2022-11-29T03:47:27.056Z,47.00
2022-11-29T03:48:27.012Z,46.91
2022-11-29T03:49:27.772Z,54.43
2022-11-29T03:50:27.010Z,51.75
2022-11-29T03:51:26.995Z,49.03
2022-11-29T03:52:26.985Z,48.42
2022-11-29T03:53:26.967Z,49.99
2022-11-29T03:54:27.078Z,51.53
2022-11-29T03:55:27.003Z,49.36
2022-11-29T03:56:27.206Z,47.78
2022-11-29T03:57:26.955Z,47.04
2022-11-29T03:58:26.944Z,46.69
2022-11-29T03:59:26.941Z,46.28
2022-11-29T04:00:26.969Z,46.39
2022-11-29T04:01:27.391Z,46.74
2022-11-29T04:02:26.997Z,47.22
2022-11-29T04:03:26.935Z,46.16
2022-11-29T04:04:26.922Z,46.66
2022-11-29T04:05:26.922Z,47.08
2022-11-29T04:06:26.896Z,57.58
2022-11-29T04:07:26.940Z,57.72
2022-11-29T04:08:26.883Z,48.21
2022-11-29T04:09:27.576Z,47.79
2022-11-29T04:10:26.881Z,48.71
2022-11-29T04:11:26.855Z,48.64
2022-11-29T04:12:26.868Z,46.30
2022-11-29T04:13:26.853Z,47.66
2022-11-29T04:14:26.862Z,47.27
2022-11-29T04:15:28.032Z,46.30
2022-11-29T04:16:26.827Z,48.44
2022-11-29T04:17:26.815Z,48.95
2022-11-29T04:18:26.830Z,47.28
2022-11-29T04:19:26.846Z,45.85
2022-11-29T04:20:26.816Z,48.14
2022-11-29T04:21:26.801Z,46.93
2022-11-29T04:22:26.788Z,48.08
2022-11-29T04:23:26.772Z,48.76
2022-11-29T04:24:26.792Z,52.98
2022-11-29T04:25:27.045Z,47.28
2022-11-29T04:26:30.821Z,47.60
2022-11-29T04:27:27.764Z,47.98
2022-11-29T04:28:26.742Z,46.98
2022-11-29T04:29:26.761Z,46.32
2022-11-29T04:30:26.732Z,48.05
2022-11-29T04:31:26.853Z,46.13
2022-11-29T04:32:26.731Z,46.24
2022-11-29T04:33:26.721Z,46.89
2022-11-29T04:34:26.718Z,45.95
2022-11-29T04:35:26.735Z,46.58
2022-11-29T04:36:26.893Z,46.85
2022-11-29T04:37:26.715Z,47.29
2022-11-29T04:38:26.706Z,46.73
2022-11-29T04:39:26.682Z,47.69
2022-11-29T04:40:26.687Z,47.31
2022-11-29T04:41:26.723Z,46.94
2022-11-29T04:42:26.656Z,46.61
2022-11-29T04:43:26.688Z,48.95
2022-11-29T04:44:26.653Z,48.44
2022-11-29T04:45:26.640Z,47.42
2022-11-29T04:46:26.731Z,48.05
2022-11-29T04:47:26.831Z,47.80
2022-11-29T04:48:26.608Z,47.61
2022-11-29T04:49:26.624Z,47.14
2022-11-29T04:50:26.595Z,47.78
2022-11-29T04:51:27.079Z,48.47
2022-11-29T04:52:26.607Z,46.82
2022-11-29T04:53:26.585Z,45.75
2022-11-29T04:54:26.566Z,47.15
2022-11-29T04:55:30.915Z,47.68
2022-11-29T04:56:26.998Z,46.58
2022-11-29T04:57:26.930Z,46.55
2022-11-29T04:58:26.557Z,46.16
2022-11-29T04:59:26.556Z,47.29
2022-11-29T05:00:26.539Z,47.56
2022-11-29T05:01:26.610Z,47.69
2022-11-29T05:02:26.569Z,46.85
2022-11-29T05:03:27.537Z,47.16
2022-11-29T05:04:26.518Z,46.75
2022-11-29T05:05:26.597Z,47.19
2022-11-29T05:06:26.506Z,49.72
2022-11-29T05:07:26.542Z,48.36
2022-11-29T05:08:26.496Z,47.58
2022-11-29T05:09:27.701Z,46.49
2022-11-29T05:10:26.508Z,46.81
2022-11-29T05:11:27.135Z,47.31
2022-11-29T05:12:26.463Z,47.86
2022-11-29T05:13:26.462Z,46.71
2022-11-29T05:14:26.452Z,48.54
2022-11-29T05:15:26.453Z,48.05
2022-11-29T05:16:26.582Z,47.12
2022-11-29T05:17:29.357Z,47.84
2022-11-29T05:18:26.506Z,48.97
2022-11-29T05:19:26.410Z,48.11
2022-11-29T05:20:26.418Z,48.99
2022-11-29T05:21:26.427Z,52.31
2022-11-29T05:22:26.409Z,47.77
2022-11-29T05:23:26.436Z,48.18
2022-11-29T05:24:26.583Z,48.11
2022-11-29T05:25:26.374Z,47.32
2022-11-29T05:26:26.385Z,47.43
2022-11-29T05:27:26.378Z,47.39
2022-11-29T05:28:26.381Z,46.77
2022-11-29T05:29:26.363Z,48.81
2022-11-29T05:30:27.018Z,53.70
2022-11-29T05:31:26.410Z,49.64
2022-11-29T05:32:26.344Z,47.00
2022-11-29T05:33:26.342Z,47.58
2022-11-29T05:34:31.706Z,48.26
2022-11-29T05:35:27.767Z,46.50
2022-11-29T05:36:26.331Z,48.58
2022-11-29T05:37:26.299Z,48.05
2022-11-29T05:38:26.322Z,46.67
2022-11-29T05:39:26.311Z,46.93
2022-11-29T05:40:26.406Z,57.00
2022-11-29T05:41:26.322Z,54.25
2022-11-29T05:42:26.312Z,49.41
2022-11-29T05:43:26.820Z,46.69
2022-11-29T05:44:26.262Z,46.19
2022-11-29T05:45:26.260Z,46.62
2022-11-29T05:46:26.317Z,45.86
2022-11-29T05:47:31.184Z,45.27
2022-11-29T05:48:27.275Z,44.64
2022-11-29T05:49:26.219Z,44.69
2022-11-29T05:50:26.968Z,45.06
2022-11-29T05:51:26.639Z,48.71
2022-11-29T05:52:26.631Z,44.90
2022-11-29T05:53:47.207Z,45.30
2022-11-29T05:54:26.193Z,46.10
2022-11-29T05:55:26.223Z,44.92
2022-11-29T05:56:26.215Z,46.36
2022-11-29T05:57:26.161Z,45.51
2022-11-29T05:58:30.329Z,44.69
2022-11-29T05:59:26.178Z,45.81
2022-11-29T06:00:26.195Z,46.04
2022-11-29T06:01:26.222Z,46.88
2022-11-29T06:02:26.300Z,45.17
2022-11-29T06:03:26.134Z,44.78
2022-11-29T06:04:26.137Z,45.52
2022-11-29T06:05:26.140Z,45.09
2022-11-29T06:06:26.142Z,44.97
2022-11-29T06:07:28.085Z,45.46
2022-11-29T06:08:26.116Z,45.18
2022-11-29T06:09:26.101Z,46.15
2022-11-29T06:10:26.115Z,46.22
2022-11-29T06:11:26.112Z,45.67
2022-11-29T06:12:26.093Z,45.36
2022-11-29T06:13:26.126Z,45.37
2022-11-29T06:14:26.734Z,49.50
2022-11-29T06:15:26.085Z,47.20
2022-11-29T06:16:26.151Z,48.54
2022-11-29T06:17:26.055Z,48.53
2022-11-29T06:18:26.059Z,51.50
2022-11-29T06:19:26.018Z,48.82
2022-11-29T06:20:26.034Z,52.84
2022-11-29T06:21:26.036Z,53.65
2022-11-29T06:22:26.004Z,58.15
2022-11-29T06:23:25.997Z,55.21
2022-11-29T06:24:26.335Z,57.79
2022-11-29T06:25:25.971Z,56.75
2022-11-29T06:26:26.425Z,55.19
2022-11-29T06:27:25.998Z,55.90
2022-11-29T06:28:25.997Z,55.46
2022-11-29T06:29:25.957Z,55.24
2022-11-29T06:30:26.025Z,54.78
2022-11-29T06:31:26.000Z,54.35
2022-11-29T06:32:26.392Z,54.33
2022-11-29T06:33:25.933Z,57.15
2022-11-29T06:34:30.496Z,64.15
2022-11-29T06:35:26.914Z,70.85
2022-11-29T06:36:25.918Z,68.81
2022-11-29T06:37:25.914Z,56.34
2022-11-29T06:38:25.920Z,51.68
2022-11-29T06:39:25.877Z,56.60
2022-11-29T06:40:25.880Z,48.72
2022-11-29T06:41:26.646Z,61.11
2022-11-29T06:42:25.883Z,55.61
2022-11-29T06:43:25.888Z,58.33
2022-11-29T06:44:25.870Z,64.70
2022-11-29T06:45:25.843Z,50.89
2022-11-29T06:46:25.954Z,50.03
2022-11-29T06:47:25.846Z,59.09
2022-11-29T06:48:25.859Z,58.02
2022-11-29T06:49:25.817Z,51.10
2022-11-29T06:50:25.828Z,55.74
2022-11-29T06:51:25.800Z,51.69
2022-11-29T06:52:25.803Z,60.21
2022-11-29T06:53:25.873Z,53.97
2022-11-29T06:54:25.800Z,51.38
2022-11-29T06:55:26.688Z,50.75
2022-11-29T06:56:25.794Z,52.24
2022-11-29T06:57:25.776Z,52.98
2022-11-29T06:58:25.774Z,56.02
2022-11-29T06:59:25.769Z,48.93
2022-11-29T07:00:25.747Z,49.00
2022-11-29T07:01:26.019Z,48.29
2022-11-29T07:02:25.883Z,63.10
2022-11-29T07:03:25.727Z,50.19
2022-11-29T07:04:25.736Z,51.66
2022-11-29T07:05:25.731Z,65.22
2022-11-29T07:06:26.141Z,59.79
2022-11-29T07:07:25.813Z,50.14
2022-11-29T07:08:25.725Z,48.96
2022-11-29T07:09:25.685Z,49.04
2022-11-29T07:10:25.699Z,47.78
2022-11-29T07:11:25.692Z,56.13
2022-11-29T07:12:25.701Z,50.06
2022-11-29T07:13:25.680Z,50.07
2022-11-29T07:14:25.683Z,50.35
2022-11-29T07:15:25.677Z,50.54
2022-11-29T07:16:25.703Z,62.80
2022-11-29T07:17:25.664Z,54.17
2022-11-29T07:18:25.641Z,50.24
2022-11-29T07:19:25.614Z,48.51
2022-11-29T07:20:25.633Z,62.56
2022-11-29T07:21:25.619Z,55.77
2022-11-29T07:22:26.354Z,66.94
2022-11-29T07:23:25.602Z,68.61
2022-11-29T07:24:25.638Z,50.55
2022-11-29T07:25:25.580Z,51.07
2022-11-29T07:26:25.600Z,54.52
2022-11-29T07:27:25.559Z,52.72
2022-11-29T07:28:25.970Z,50.32
2022-11-29T07:29:25.561Z,52.09
2022-11-29T07:30:25.577Z,51.34
2022-11-29T07:31:25.627Z,52.63
2022-11-29T07:32:25.539Z,47.76
2022-11-29T07:33:25.663Z,48.37
2022-11-29T07:34:25.597Z,51.39
2022-11-29T07:35:25.558Z,52.97
2022-11-29T07:36:25.551Z,57.91
2022-11-29T07:37:25.524Z,47.69
2022-11-29T07:38:25.490Z,48.38
2022-11-29T07:39:26.277Z,61.97
2022-11-29T07:40:25.502Z,50.44
2022-11-29T07:41:25.516Z,49.70
2022-11-29T07:42:25.475Z,64.28
2022-11-29T07:43:25.780Z,53.69
2022-11-29T07:44:25.726Z,48.45
2022-11-29T07:45:25.488Z,48.20
2022-11-29T07:46:25.537Z,52.77
2022-11-29T07:47:25.520Z,60.55
2022-11-29T07:48:25.443Z,47.30
2022-11-29T07:49:25.439Z,61.06
2022-11-29T07:50:26.266Z,47.85
2022-11-29T07:51:25.461Z,46.88
2022-11-29T07:52:25.413Z,47.71
2022-11-29T07:53:25.495Z,46.93
2022-11-29T07:54:25.412Z,47.98
2022-11-29T07:55:25.873Z,47.56
2022-11-29T07:56:25.374Z,48.88
2022-11-29T07:57:25.394Z,64.85
2022-11-29T07:58:25.396Z,70.73
2022-11-29T07:59:25.381Z,69.12
2022-11-29T08:00:27.622Z,69.76
2022-11-29T08:01:25.393Z,48.64
2022-11-29T08:02:25.412Z,47.98
2022-11-29T08:03:25.517Z,47.63
2022-11-29T08:04:25.326Z,46.94
2022-11-29T08:05:25.340Z,47.05
2022-11-29T08:06:25.339Z,47.16
2022-11-29T08:07:25.536Z,48.29
2022-11-29T08:08:25.299Z,52.16
2022-11-29T08:09:25.325Z,52.02
2022-11-29T08:10:25.401Z,49.96
2022-11-29T08:11:25.360Z,66.13
2022-11-29T08:12:25.283Z,70.31
2022-11-29T08:13:25.315Z,57.21
2022-11-29T08:14:25.284Z,51.31
2022-11-29T08:15:25.295Z,51.32
2022-11-29T08:16:25.328Z,48.37
2022-11-29T08:17:25.952Z,53.89
2022-11-29T08:18:25.236Z,52.65
2022-11-29T08:19:25.259Z,52.93
2022-11-29T08:20:25.378Z,51.86
2022-11-29T08:21:25.261Z,52.07
2022-11-29T08:22:25.217Z,62.01
2022-11-29T08:23:25.757Z,56.56
2022-11-29T08:24:25.240Z,53.67
2022-11-29T08:25:25.210Z,51.29
2022-11-29T08:26:29.821Z,59.30
2022-11-29T08:27:26.183Z,66.04
2022-11-29T08:28:25.179Z,58.13
2022-11-29T08:29:25.194Z,51.15
2022-11-29T08:30:25.221Z,53.12
2022-11-29T08:31:25.192Z,56.40
2022-11-29T08:32:25.151Z,55.83
2022-11-29T08:33:25.246Z,56.15
2022-11-29T08:34:25.137Z,52.03
2022-11-29T08:35:25.157Z,62.46
2022-11-29T08:36:25.180Z,67.65
2022-11-29T08:37:25.131Z,67.46
2022-11-29T08:38:25.478Z,68.51
2022-11-29T08:39:25.108Z,63.54
2022-11-29T08:40:25.104Z,65.11
2022-11-29T08:41:25.095Z,79.77
2022-11-29T08:42:25.094Z,74.70
2022-11-29T08:43:25.739Z,76.22
2022-11-29T08:44:25.066Z,77.17
2022-11-29T08:45:25.168Z,75.91
2022-11-29T08:46:25.090Z,75.30
2022-11-29T08:47:25.462Z,76.76
2022-11-29T08:48:25.060Z,79.92
2022-11-29T08:49:25.172Z,72.42
2022-11-29T08:50:25.046Z,73.62
2022-11-29T08:51:25.070Z,73.51
2022-11-29T08:52:25.989Z,75.50
2022-11-29T08:53:25.033Z,77.13
2022-11-29T08:54:25.016Z,74.05
2022-11-29T08:55:25.018Z,75.33
2022-11-29T08:57:10.257Z,75.37
2022-11-29T08:57:41.592Z,79.69
2022-11-29T08:58:25.986Z,78.17
2022-11-29T08:59:24.975Z,78.13
2022-11-29T09:00:24.990Z,77.16
2022-11-29T09:01:25.109Z,75.92
2022-11-29T09:02:25.053Z,74.82
2022-11-29T09:03:25.407Z,74.41
2022-11-29T09:04:24.934Z,73.53
2022-11-29T09:05:24.975Z,72.78
2022-11-29T09:06:24.923Z,73.31
2022-11-29T09:07:24.998Z,79.85
2022-11-29T09:08:25.347Z,82.39
2022-11-29T09:09:46.562Z,82.02
2022-11-29T09:10:24.943Z,70.55
2022-11-29T09:11:24.900Z,77.33
2022-11-29T09:12:24.894Z,78.80
2022-11-29T09:13:24.893Z,79.34
2022-11-29T09:14:24.878Z,79.24
2022-11-29T09:15:24.931Z,77.93
2022-11-29T09:16:24.890Z,76.69
2022-11-29T09:17:24.885Z,76.67
2022-11-29T09:18:24.837Z,74.29
2022-11-29T09:19:25.458Z,73.63
2022-11-29T09:20:24.841Z,77.95
2022-11-29T09:21:24.841Z,81.17
2022-11-29T09:22:24.838Z,82.49
2022-11-29T09:23:24.918Z,71.93
2022-11-29T09:24:24.794Z,70.73
2022-11-29T09:25:25.233Z,73.57
2022-11-29T09:26:24.791Z,75.87
2022-11-29T09:27:24.783Z,73.98
2022-11-29T09:28:24.793Z,73.77
2022-11-29T09:29:24.771Z,73.59
2022-11-29T09:30:24.906Z,73.62
2022-11-29T09:31:24.828Z,74.09
2022-11-29T09:32:25.169Z,73.70
2022-11-29T09:33:24.758Z,70.18
2022-11-29T09:34:24.820Z,70.45
2022-11-29T09:35:24.730Z,70.19
2022-11-29T09:36:28.424Z,70.61
2022-11-29T09:37:24.711Z,70.45
2022-11-29T09:38:24.733Z,72.96
2022-11-29T09:39:24.758Z,77.25
2022-11-29T09:40:24.703Z,74.62
2022-11-29T09:41:24.713Z,52.24
2022-11-29T09:42:24.718Z,68.50
2022-11-29T09:43:24.686Z,62.85
2022-11-29T09:44:25.888Z,62.89
2022-11-29T09:45:24.674Z,62.02
2022-11-29T09:46:24.696Z,62.81
2022-11-29T09:47:24.655Z,58.41
2022-11-29T09:48:24.692Z,60.00
2022-11-29T09:49:24.636Z,62.61
2022-11-29T09:50:24.695Z,64.89
2022-11-29T09:51:24.656Z,64.70
2022-11-29T09:52:24.673Z,61.76
2022-11-29T09:53:25.870Z,61.30
2022-11-29T09:54:24.624Z,64.87
2022-11-29T09:55:24.653Z,60.17
2022-11-29T09:56:24.626Z,59.89
2022-11-29T09:57:24.594Z,60.12
2022-11-29T09:58:24.582Z,68.37
2022-11-29T09:59:27.441Z,58.57
2022-11-29T10:00:24.586Z,56.45
2022-11-29T10:01:24.673Z,56.71
2022-11-29T10:02:24.617Z,57.81
2022-11-29T10:03:24.561Z,60.36
2022-11-29T10:04:25.270Z,61.75
2022-11-29T10:05:24.531Z,64.09
2022-11-29T10:06:24.523Z,66.68
2022-11-29T10:07:24.599Z,68.91
2022-11-29T10:08:24.532Z,58.05
2022-11-29T10:09:24.495Z,58.97
2022-11-29T10:10:24.548Z,68.98
2022-11-29T10:11:24.530Z,69.91
2022-11-29T10:12:24.483Z,60.56
2022-11-29T10:13:24.469Z,64.18
2022-11-29T10:14:24.489Z,68.39
2022-11-29T10:15:25.156Z,56.32
2022-11-29T10:16:24.568Z,56.94
2022-11-29T10:17:24.454Z,56.10
2022-11-29T10:18:24.445Z,55.44
2022-11-29T10:19:24.429Z,55.76
2022-11-29T10:20:24.476Z,56.41
2022-11-29T10:21:24.418Z,58.57
2022-11-29T10:22:25.317Z,59.54
2022-11-29T10:23:24.428Z,48.94
2022-11-29T10:24:24.403Z,48.69
2022-11-29T10:25:24.403Z,50.17
2022-11-29T10:26:24.620Z,49.74
2022-11-29T10:27:24.414Z,49.17
2022-11-29T10:28:24.370Z,46.85
2022-11-29T10:29:24.384Z,52.24
2022-11-29T10:30:24.438Z,53.04
2022-11-29T10:31:24.774Z,62.14
2022-11-29T10:32:26.197Z,55.79
2022-11-29T10:33:24.356Z,67.19
2022-11-29T10:34:24.329Z,58.64
2022-11-29T10:35:24.344Z,49.55
2022-11-29T10:36:24.307Z,52.23
2022-11-29T10:37:24.327Z,51.28
2022-11-29T10:38:32.102Z,49.82
2022-11-29T10:39:25.296Z,51.09
2022-11-29T10:40:24.296Z,51.96
2022-11-29T10:41:24.286Z,51.68
2022-11-29T10:42:24.512Z,51.03
2022-11-29T10:43:24.316Z,51.56
2022-11-29T10:44:24.276Z,48.84
2022-11-29T10:45:24.261Z,48.36
2022-11-29T10:46:24.271Z,52.00
2022-11-29T10:47:24.255Z,59.68
2022-11-29T10:48:24.313Z,69.65
2022-11-29T10:49:24.978Z,62.28
2022-11-29T10:50:24.224Z,55.33
2022-11-29T10:51:24.210Z,52.69
2022-11-29T10:52:24.207Z,59.53
2022-11-29T10:53:24.245Z,48.68
2022-11-29T10:54:24.200Z,46.82
2022-11-29T10:55:24.233Z,52.09
2022-11-29T10:56:24.292Z,53.78
2022-11-29T10:57:24.255Z,55.24
2022-11-29T10:58:27.947Z,67.70
2022-11-29T10:59:24.256Z,68.44
2022-11-29T11:00:24.195Z,55.92
2022-11-29T11:01:24.263Z,55.27
2022-11-29T11:02:25.128Z,48.29
2022-11-29T11:03:24.129Z,45.91
2022-11-29T11:04:24.122Z,45.14
2022-11-29T11:05:25.004Z,46.74
2022-11-29T11:06:24.188Z,46.13
2022-11-29T11:07:24.663Z,45.76
2022-11-29T11:08:24.478Z,59.68
2022-11-29T11:09:24.233Z,57.32
2022-11-29T11:10:24.080Z,51.44
2022-11-29T11:11:24.091Z,51.02
2022-11-29T11:12:24.079Z,50.14
2022-11-29T11:13:24.059Z,50.41
2022-11-29T11:14:24.034Z,51.97
2022-11-29T11:15:24.087Z,46.47
2022-11-29T11:16:25.086Z,45.42
2022-11-29T11:17:24.046Z,45.19
2022-11-29T11:18:24.122Z,49.15
2022-11-29T11:19:24.538Z,54.96
2022-11-29T11:20:23.992Z,50.70
2022-11-29T11:21:24.145Z,44.46
2022-11-29T11:22:23.989Z,44.31
2022-11-29T11:23:24.028Z,45.21
2022-11-29T11:24:23.988Z,54.59
2022-11-29T11:25:23.963Z,56.04
2022-11-29T11:26:24.012Z,51.80
2022-11-29T11:27:24.050Z,52.44
2022-11-29T11:28:23.940Z,57.25
2022-11-29T11:29:23.951Z,57.50
2022-11-29T11:30:23.940Z,55.46
2022-11-29T11:31:24.020Z,49.34
2022-11-29T11:32:23.935Z,50.58
2022-11-29T11:33:24.740Z,49.97
2022-11-29T11:34:23.903Z,49.32
2022-11-29T11:35:23.914Z,56.71
2022-11-29T11:36:23.906Z,60.05
2022-11-29T11:37:23.899Z,69.72
2022-11-29T11:38:23.887Z,61.37
2022-11-29T11:39:23.919Z,60.28
2022-11-29T11:40:23.993Z,64.09
2022-11-29T11:41:23.865Z,63.88
2022-11-29T11:42:24.479Z,65.18
2022-11-29T11:43:23.861Z,64.36
2022-11-29T11:44:46.378Z,63.48
2022-11-29T11:45:24.850Z,64.15
2022-11-29T11:46:24.514Z,63.90
2022-11-29T11:47:23.839Z,63.52
2022-11-29T11:48:24.009Z,66.16
2022-11-29T11:49:23.846Z,68.58
2022-11-29T11:50:23.823Z,64.53
2022-11-29T11:51:23.796Z,63.85
2022-11-29T11:52:23.789Z,65.01
2022-11-29T11:53:23.771Z,67.61
2022-11-29T11:54:23.769Z,67.55
2022-11-29T11:55:23.793Z,68.96
2022-11-29T11:56:23.751Z,69.29
2022-11-29T11:57:23.776Z,69.23
2022-11-29T11:58:23.745Z,68.80
2022-11-29T11:59:23.734Z,68.54
2022-11-29T12:00:47.525Z,68.81
2022-11-29T12:01:24.734Z,66.42
2022-11-29T12:02:23.844Z,68.51
2022-11-29T12:03:23.904Z,62.71
2022-11-29T12:04:23.699Z,60.88
2022-11-29T12:05:23.735Z,58.81
2022-11-29T12:06:23.679Z,57.77
2022-11-29T12:07:45.191Z,59.05
2022-11-29T12:08:24.709Z,57.90
2022-11-29T12:09:23.697Z,57.27
2022-11-29T12:10:23.665Z,57.90
2022-11-29T12:11:23.647Z,59.22
2022-11-29T12:12:23.641Z,56.63
2022-11-29T12:13:23.669Z,51.83
2022-11-29T12:14:23.620Z,53.16
2022-11-29T12:15:23.641Z,59.10
2022-11-29T12:16:23.605Z,58.63
2022-11-29T12:17:23.618Z,58.36
2022-11-29T12:18:23.615Z,52.77
2022-11-29T12:19:23.878Z,52.72
2022-11-29T12:20:23.576Z,58.16
2022-11-29T12:21:23.603Z,58.15
2022-11-29T12:22:23.580Z,52.67
2022-11-29T12:23:23.998Z,57.13
2022-11-29T12:24:23.701Z,58.82
2022-11-29T12:25:23.635Z,58.03
2022-11-29T12:26:55.295Z,57.89
2022-11-29T12:27:24.553Z,55.26
2022-11-29T12:28:23.521Z,60.07
2022-11-29T12:29:23.554Z,62.28
2022-11-29T12:30:23.529Z,53.45
2022-11-29T12:31:23.535Z,65.28
2022-11-29T12:32:23.514Z,60.45
2022-11-29T12:33:23.493Z,58.71
2022-11-29T12:34:23.493Z,58.60
2022-11-29T12:35:23.536Z,57.44
2022-11-29T12:36:23.465Z,58.06
2022-11-29T12:37:23.486Z,56.60
2022-11-29T12:38:23.468Z,57.33
2022-11-29T12:39:23.458Z,57.59
2022-11-29T12:40:23.473Z,58.34
2022-11-29T12:41:23.463Z,63.00
2022-11-29T12:42:23.578Z,53.03
2022-11-29T12:43:23.442Z,59.76
2022-11-29T12:44:23.419Z,61.05
2022-11-29T12:45:23.448Z,58.19
2022-11-29T12:46:23.470Z,56.49
2022-11-29T12:47:38.833Z,56.82
2022-11-29T12:48:24.413Z,61.40
2022-11-29T12:49:23.406Z,53.18
2022-11-29T12:50:23.372Z,64.94
2022-11-29T12:51:23.413Z,66.31
2022-11-29T12:52:24.005Z,67.20